sensor_id;sensor_type;location;lat;lon;timestamp;P1;durP1;ratioP1;P2;durP2;ratioP2
14235;SDS011;7202;50.718;7.072;2023-12-20T00:01:15;2.05;;;1.85;;
14235;SDS011;7202;50.718;7.072;2023-12-20T00:03:44;2.15;;;1.85;;
14235;SDS011;7202;50.718;7.072;2023-12-20T00:06:13;2.08;;;1.80;;
14235;SDS011;7202;50.718;7.072;2023-12-20T00:08:43;3.10;;;1.98;;
14235;SDS011;7202;50.718;7.072;2023-12-20T00:11:12;2.17;;;1.98;;
14235;SDS011;7202;50.718;7.072;2023-12-20T00:13:41;2.08;;;1.75;;
14235;SDS011;7202;50.718;7.072;2023-12-20T00:16:09;3.80;;;2.55;;
14235;SDS011;7202;50.718;7.072;2023-12-20T00:18:39;2.92;;;2.28;;
14235;SDS011;7202;50.718;7.072;2023-12-20T00:21:07;2.92;;;2.13;;
14235;SDS011;7202;50.718;7.072;2023-12-20T00:23:36;2.60;;;2.30;;
14235;SDS011;7202;50.718;7.072;2023-12-20T00:26:07;2.28;;;2.08;;
14235;SDS011;7202;50.718;7.072;2023-12-20T00:28:35;2.25;;;2.05;;
14235;SDS011;7202;50.718;7.072;2023-12-20T00:31:04;2.95;;;2.10;;
14235;SDS011;7202;50.718;7.072;2023-12-20T00:33:34;2.13;;;1.77;;
14235;SDS011;7202;50.718;7.072;2023-12-20T00:36:03;2.30;;;2.08;;
14235;SDS011;7202;50.718;7.072;2023-12-20T00:38:32;3.45;;;2.05;;
14235;SDS011;7202;50.718;7.072;2023-12-20T00:41:01;2.95;;;1.88;;
14235;SDS011;7202;50.718;7.072;2023-12-20T00:43:34;2.40;;;1.77;;
14235;SDS011;7202;50.718;7.072;2023-12-20T00:46:03;2.92;;;1.77;;
14235;SDS011;7202;50.718;7.072;2023-12-20T00:48:32;2.85;;;1.73;;
14235;SDS011;7202;50.718;7.072;2023-12-20T00:51:02;2.95;;;1.80;;
14235;SDS011;7202;50.718;7.072;2023-12-20T00:53:31;2.35;;;1.63;;
14235;SDS011;7202;50.718;7.072;2023-12-20T00:56:00;1.63;;;1.52;;
14235;SDS011;7202;50.718;7.072;2023-12-20T00:58:29;1.95;;;1.60;;
14235;SDS011;7202;50.718;7.072;2023-12-20T01:00:59;1.55;;;1.45;;
14235;SDS011;7202;50.718;7.072;2023-12-20T01:03:28;1.40;;;1.30;;
14235;SDS011;7202;50.718;7.072;2023-12-20T01:05:57;1.90;;;1.70;;
14235;SDS011;7202;50.718;7.072;2023-12-20T01:08:26;1.85;;;1.60;;
14235;SDS011;7202;50.718;7.072;2023-12-20T01:10:55;2.03;;;1.52;;
14235;SDS011;7202;50.718;7.072;2023-12-20T01:13:24;3.45;;;1.75;;
14235;SDS011;7202;50.718;7.072;2023-12-20T01:15:52;1.80;;;1.60;;
14235;SDS011;7202;50.718;7.072;2023-12-20T01:18:22;2.25;;;2.05;;
14235;SDS011;7202;50.718;7.072;2023-12-20T01:20:51;3.33;;;2.58;;
14235;SDS011;7202;50.718;7.072;2023-12-20T01:23:20;2.83;;;2.53;;
14235;SDS011;7202;50.718;7.072;2023-12-20T01:25:49;3.35;;;3.05;;
14235;SDS011;7202;50.718;7.072;2023-12-20T01:28:18;4.07;;;3.33;;
14235;SDS011;7202;50.718;7.072;2023-12-20T01:30:47;4.65;;;3.78;;
14235;SDS011;7202;50.718;7.072;2023-12-20T01:33:15;4.97;;;4.28;;
14235;SDS011;7202;50.718;7.072;2023-12-20T01:35:46;5.13;;;4.45;;
14235;SDS011;7202;50.718;7.072;2023-12-20T01:38:14;5.28;;;4.45;;
14235;SDS011;7202;50.718;7.072;2023-12-20T01:40:45;6.93;;;5.47;;
14235;SDS011;7202;50.718;7.072;2023-12-20T01:43:14;7.90;;;5.53;;
14235;SDS011;7202;50.718;7.072;2023-12-20T01:45:43;6.32;;;5.57;;
14235;SDS011;7202;50.718;7.072;2023-12-20T01:48:12;7.13;;;6.10;;
14235;SDS011;7202;50.718;7.072;2023-12-20T01:50:43;9.50;;;6.15;;
14235;SDS011;7202;50.718;7.072;2023-12-20T01:53:14;10.00;;;6.53;;
14235;SDS011;7202;50.718;7.072;2023-12-20T01:55:43;9.82;;;6.78;;
14235;SDS011;7202;50.718;7.072;2023-12-20T01:58:13;9.32;;;6.55;;
14235;SDS011;7202;50.718;7.072;2023-12-20T02:00:42;9.60;;;6.47;;
14235;SDS011;7202;50.718;7.072;2023-12-20T02:03:11;9.45;;;6.78;;
14235;SDS011;7202;50.718;7.072;2023-12-20T02:05:40;13.85;;;7.13;;
14235;SDS011;7202;50.718;7.072;2023-12-20T02:08:10;12.50;;;8.30;;
14235;SDS011;7202;50.718;7.072;2023-12-20T02:10:41;11.10;;;8.05;;
14235;SDS011;7202;50.718;7.072;2023-12-20T02:13:10;13.45;;;8.65;;
14235;SDS011;7202;50.718;7.072;2023-12-20T02:15:39;15.20;;;8.27;;
14235;SDS011;7202;50.718;7.072;2023-12-20T02:18:10;13.48;;;8.35;;
14235;SDS011;7202;50.718;7.072;2023-12-20T02:20:42;15.63;;;7.05;;
14235;SDS011;7202;50.718;7.072;2023-12-20T02:23:12;11.02;;;6.10;;
14235;SDS011;7202;50.718;7.072;2023-12-20T02:25:41;11.45;;;5.40;;
14235;SDS011;7202;50.718;7.072;2023-12-20T02:28:10;10.23;;;4.25;;
14235;SDS011;7202;50.718;7.072;2023-12-20T02:30:39;14.02;;;5.03;;
14235;SDS011;7202;50.718;7.072;2023-12-20T02:33:10;10.93;;;4.20;;
14235;SDS011;7202;50.718;7.072;2023-12-20T02:35:40;12.73;;;3.60;;
14235;SDS011;7202;50.718;7.072;2023-12-20T02:38:09;8.93;;;3.53;;
14235;SDS011;7202;50.718;7.072;2023-12-20T02:40:40;9.88;;;3.97;;
14235;SDS011;7202;50.718;7.072;2023-12-20T02:43:15;6.05;;;3.25;;
14235;SDS011;7202;50.718;7.072;2023-12-20T02:45:45;6.57;;;2.83;;
14235;SDS011;7202;50.718;7.072;2023-12-20T02:48:14;9.77;;;3.30;;
14235;SDS011;7202;50.718;7.072;2023-12-20T02:50:42;8.38;;;3.55;;
14235;SDS011;7202;50.718;7.072;2023-12-20T02:53:11;11.80;;;3.22;;
14235;SDS011;7202;50.718;7.072;2023-12-20T02:55:41;9.27;;;2.95;;
14235;SDS011;7202;50.718;7.072;2023-12-20T02:58:10;8.35;;;2.78;;
14235;SDS011;7202;50.718;7.072;2023-12-20T03:00:39;8.23;;;2.88;;
14235;SDS011;7202;50.718;7.072;2023-12-20T03:03:08;6.85;;;2.60;;
14235;SDS011;7202;50.718;7.072;2023-12-20T03:05:37;7.78;;;2.60;;
14235;SDS011;7202;50.718;7.072;2023-12-20T03:08:05;7.03;;;2.75;;
14235;SDS011;7202;50.718;7.072;2023-12-20T03:10:34;11.10;;;3.00;;
14235;SDS011;7202;50.718;7.072;2023-12-20T03:13:04;9.52;;;2.70;;
14235;SDS011;7202;50.718;7.072;2023-12-20T03:15:33;6.97;;;2.25;;
14235;SDS011;7202;50.718;7.072;2023-12-20T03:18:03;9.68;;;2.45;;
14235;SDS011;7202;50.718;7.072;2023-12-20T03:20:32;8.40;;;2.35;;
14235;SDS011;7202;50.718;7.072;2023-12-20T03:23:01;7.55;;;2.05;;
14235;SDS011;7202;50.718;7.072;2023-12-20T03:25:30;10.38;;;2.53;;
14235;SDS011;7202;50.718;7.072;2023-12-20T03:27:59;12.63;;;2.30;;
14235;SDS011;7202;50.718;7.072;2023-12-20T03:30:29;12.27;;;2.60;;
14235;SDS011;7202;50.718;7.072;2023-12-20T03:32:58;11.23;;;3.03;;
14235;SDS011;7202;50.718;7.072;2023-12-20T03:35:27;14.52;;;2.55;;
14235;SDS011;7202;50.718;7.072;2023-12-20T03:37:56;8.48;;;2.50;;
14235;SDS011;7202;50.718;7.072;2023-12-20T03:40:27;10.23;;;2.78;;
14235;SDS011;7202;50.718;7.072;2023-12-20T03:42:56;8.90;;;2.85;;
14235;SDS011;7202;50.718;7.072;2023-12-20T03:45:24;7.70;;;2.45;;
14235;SDS011;7202;50.718;7.072;2023-12-20T03:47:55;6.13;;;2.63;;
14235;SDS011;7202;50.718;7.072;2023-12-20T03:50:23;8.30;;;2.75;;
14235;SDS011;7202;50.718;7.072;2023-12-20T03:52:52;4.95;;;2.17;;
14235;SDS011;7202;50.718;7.072;2023-12-20T03:55:23;8.52;;;2.58;;
14235;SDS011;7202;50.718;7.072;2023-12-20T03:57:52;8.50;;;2.63;;
14235;SDS011;7202;50.718;7.072;2023-12-20T04:00:21;5.78;;;2.38;;
14235;SDS011;7202;50.718;7.072;2023-12-20T04:02:50;7.50;;;2.55;;
14235;SDS011;7202;50.718;7.072;2023-12-20T04:05:21;15.30;;;2.78;;
14235;SDS011;7202;50.718;7.072;2023-12-20T04:07:50;7.82;;;2.83;;
14235;SDS011;7202;50.718;7.072;2023-12-20T04:10:19;12.23;;;2.60;;
14235;SDS011;7202;50.718;7.072;2023-12-20T04:12:48;8.05;;;2.38;;
14235;SDS011;7202;50.718;7.072;2023-12-20T04:15:17;6.63;;;2.58;;
14235;SDS011;7202;50.718;7.072;2023-12-20T04:17:46;8.13;;;2.72;;
14235;SDS011;7202;50.718;7.072;2023-12-20T04:20:15;13.25;;;2.72;;
14235;SDS011;7202;50.718;7.072;2023-12-20T04:22:45;9.98;;;2.47;;
14235;SDS011;7202;50.718;7.072;2023-12-20T04:25:14;5.57;;;2.00;;
14235;SDS011;7202;50.718;7.072;2023-12-20T04:27:43;9.77;;;3.85;;
14235;SDS011;7202;50.718;7.072;2023-12-20T04:30:12;10.90;;;3.20;;
14235;SDS011;7202;50.718;7.072;2023-12-20T04:32:41;11.43;;;3.15;;
14235;SDS011;7202;50.718;7.072;2023-12-20T04:35:10;10.18;;;3.38;;
14235;SDS011;7202;50.718;7.072;2023-12-20T04:37:39;9.02;;;3.95;;
14235;SDS011;7202;50.718;7.072;2023-12-20T04:40:09;12.73;;;3.22;;
14235;SDS011;7202;50.718;7.072;2023-12-20T04:42:38;10.05;;;4.28;;
14235;SDS011;7202;50.718;7.072;2023-12-20T04:45:07;8.02;;;3.00;;
14235;SDS011;7202;50.718;7.072;2023-12-20T04:47:39;13.75;;;3.38;;
14235;SDS011;7202;50.718;7.072;2023-12-20T04:50:10;11.13;;;3.53;;
14235;SDS011;7202;50.718;7.072;2023-12-20T04:52:40;8.43;;;3.17;;
14235;SDS011;7202;50.718;7.072;2023-12-20T04:55:10;7.80;;;3.88;;
14235;SDS011;7202;50.718;7.072;2023-12-20T04:57:39;10.60;;;3.70;;
14235;SDS011;7202;50.718;7.072;2023-12-20T05:00:08;10.05;;;3.30;;
14235;SDS011;7202;50.718;7.072;2023-12-20T05:02:38;17.23;;;3.72;;
14235;SDS011;7202;50.718;7.072;2023-12-20T05:05:07;11.95;;;3.38;;
14235;SDS011;7202;50.718;7.072;2023-12-20T05:07:36;13.68;;;3.80;;
14235;SDS011;7202;50.718;7.072;2023-12-20T05:10:05;8.15;;;2.95;;
14235;SDS011;7202;50.718;7.072;2023-12-20T05:12:37;8.75;;;3.13;;
14235;SDS011;7202;50.718;7.072;2023-12-20T05:15:06;8.60;;;3.08;;
14235;SDS011;7202;50.718;7.072;2023-12-20T05:17:35;9.05;;;3.20;;
14235;SDS011;7202;50.718;7.072;2023-12-20T05:20:05;7.78;;;3.20;;
14235;SDS011;7202;50.718;7.072;2023-12-20T05:22:35;10.13;;;2.88;;
14235;SDS011;7202;50.718;7.072;2023-12-20T05:25:02;15.18;;;3.75;;
14235;SDS011;7202;50.718;7.072;2023-12-20T05:27:32;9.77;;;3.60;;
14235;SDS011;7202;50.718;7.072;2023-12-20T05:30:02;15.40;;;3.90;;
14235;SDS011;7202;50.718;7.072;2023-12-20T05:32:31;13.20;;;3.65;;
14235;SDS011;7202;50.718;7.072;2023-12-20T05:35:00;11.68;;;3.20;;
14235;SDS011;7202;50.718;7.072;2023-12-20T05:37:30;10.82;;;3.33;;
14235;SDS011;7202;50.718;7.072;2023-12-20T05:39:58;12.02;;;3.33;;
14235;SDS011;7202;50.718;7.072;2023-12-20T05:42:27;13.77;;;3.67;;
14235;SDS011;7202;50.718;7.072;2023-12-20T05:44:56;11.98;;;3.67;;
14235;SDS011;7202;50.718;7.072;2023-12-20T05:47:26;12.70;;;3.50;;
14235;SDS011;7202;50.718;7.072;2023-12-20T05:49:55;11.27;;;3.60;;
14235;SDS011;7202;50.718;7.072;2023-12-20T05:52:24;12.98;;;3.85;;
14235;SDS011;7202;50.718;7.072;2023-12-20T05:54:53;16.23;;;3.72;;
14235;SDS011;7202;50.718;7.072;2023-12-20T05:57:22;10.15;;;3.47;;
14235;SDS011;7202;50.718;7.072;2023-12-20T05:59:51;12.40;;;3.63;;
14235;SDS011;7202;50.718;7.072;2023-12-20T06:02:20;15.10;;;3.78;;
14235;SDS011;7202;50.718;7.072;2023-12-20T06:04:50;15.18;;;3.58;;
14235;SDS011;7202;50.718;7.072;2023-12-20T06:07:19;10.95;;;3.45;;
14235;SDS011;7202;50.718;7.072;2023-12-20T06:09:48;12.57;;;3.60;;
14235;SDS011;7202;50.718;7.072;2023-12-20T06:12:17;13.40;;;4.32;;
14235;SDS011;7202;50.718;7.072;2023-12-20T06:14:46;13.95;;;3.60;;
14235;SDS011;7202;50.718;7.072;2023-12-20T06:17:15;9.77;;;2.92;;
14235;SDS011;7202;50.718;7.072;2023-12-20T06:19:44;7.60;;;3.38;;
14235;SDS011;7202;50.718;7.072;2023-12-20T06:22:17;16.08;;;3.75;;
14235;SDS011;7202;50.718;7.072;2023-12-20T06:24:45;15.23;;;3.38;;
14235;SDS011;7202;50.718;7.072;2023-12-20T06:27:14;13.18;;;4.13;;
14235;SDS011;7202;50.718;7.072;2023-12-20T06:29:43;14.90;;;3.60;;
14235;SDS011;7202;50.718;7.072;2023-12-20T06:32:12;9.52;;;3.38;;
14235;SDS011;7202;50.718;7.072;2023-12-20T06:34:40;10.90;;;3.28;;
14235;SDS011;7202;50.718;7.072;2023-12-20T06:37:09;15.20;;;3.30;;
14235;SDS011;7202;50.718;7.072;2023-12-20T06:39:40;9.13;;;3.45;;
14235;SDS011;7202;50.718;7.072;2023-12-20T06:42:09;14.77;;;3.78;;
14235;SDS011;7202;50.718;7.072;2023-12-20T06:44:38;17.10;;;3.70;;
14235;SDS011;7202;50.718;7.072;2023-12-20T06:47:07;13.27;;;3.67;;
14235;SDS011;7202;50.718;7.072;2023-12-20T06:49:35;12.27;;;3.65;;
14235;SDS011;7202;50.718;7.072;2023-12-20T06:52:04;16.95;;;3.88;;
14235;SDS011;7202;50.718;7.072;2023-12-20T06:54:34;14.45;;;3.92;;
14235;SDS011;7202;50.718;7.072;2023-12-20T06:57:04;13.05;;;3.55;;
14235;SDS011;7202;50.718;7.072;2023-12-20T06:59:33;12.40;;;3.95;;
14235;SDS011;7202;50.718;7.072;2023-12-20T07:02:07;13.40;;;3.55;;
14235;SDS011;7202;50.718;7.072;2023-12-20T07:04:41;15.70;;;3.92;;
14235;SDS011;7202;50.718;7.072;2023-12-20T07:07:10;13.90;;;3.63;;
14235;SDS011;7202;50.718;7.072;2023-12-20T07:09:39;11.80;;;3.47;;
14235;SDS011;7202;50.718;7.072;2023-12-20T07:12:11;12.35;;;3.70;;
14235;SDS011;7202;50.718;7.072;2023-12-20T07:14:40;10.40;;;3.60;;
14235;SDS011;7202;50.718;7.072;2023-12-20T07:17:08;11.95;;;4.07;;
14235;SDS011;7202;50.718;7.072;2023-12-20T07:19:38;13.18;;;3.85;;
14235;SDS011;7202;50.718;7.072;2023-12-20T07:22:07;12.32;;;3.33;;
14235;SDS011;7202;50.718;7.072;2023-12-20T07:24:36;10.02;;;3.58;;
14235;SDS011;7202;50.718;7.072;2023-12-20T07:27:05;9.63;;;3.20;;
14235;SDS011;7202;50.718;7.072;2023-12-20T07:29:35;10.07;;;3.40;;
14235;SDS011;7202;50.718;7.072;2023-12-20T07:32:04;11.77;;;3.42;;
14235;SDS011;7202;50.718;7.072;2023-12-20T07:34:34;12.35;;;3.15;;
14235;SDS011;7202;50.718;7.072;2023-12-20T07:37:04;8.88;;;3.20;;
14235;SDS011;7202;50.718;7.072;2023-12-20T07:39:32;11.18;;;3.75;;
14235;SDS011;7202;50.718;7.072;2023-12-20T07:42:01;12.35;;;3.10;;
14235;SDS011;7202;50.718;7.072;2023-12-20T07:44:31;12.60;;;3.90;;
14235;SDS011;7202;50.718;7.072;2023-12-20T07:47:01;16.17;;;4.00;;
14235;SDS011;7202;50.718;7.072;2023-12-20T07:49:31;9.05;;;3.22;;
14235;SDS011;7202;50.718;7.072;2023-12-20T07:51:59;12.68;;;3.85;;
14235;SDS011;7202;50.718;7.072;2023-12-20T07:54:30;11.55;;;3.25;;
14235;SDS011;7202;50.718;7.072;2023-12-20T07:56:58;15.52;;;3.58;;
14235;SDS011;7202;50.718;7.072;2023-12-20T07:59:27;8.05;;;3.30;;
14235;SDS011;7202;50.718;7.072;2023-12-20T08:01:59;7.60;;;3.03;;
14235;SDS011;7202;50.718;7.072;2023-12-20T08:04:29;13.70;;;4.05;;
14235;SDS011;7202;50.718;7.072;2023-12-20T08:06:59;10.90;;;3.05;;
14235;SDS011;7202;50.718;7.072;2023-12-20T08:09:29;8.60;;;3.45;;
14235;SDS011;7202;50.718;7.072;2023-12-20T08:11:58;12.80;;;3.40;;
14235;SDS011;7202;50.718;7.072;2023-12-20T08:14:28;13.50;;;3.22;;
14235;SDS011;7202;50.718;7.072;2023-12-20T08:16:58;14.40;;;3.53;;
14235;SDS011;7202;50.718;7.072;2023-12-20T08:19:27;9.68;;;3.28;;
14235;SDS011;7202;50.718;7.072;2023-12-20T08:21:57;10.70;;;3.63;;
14235;SDS011;7202;50.718;7.072;2023-12-20T08:24:26;11.55;;;3.30;;
14235;SDS011;7202;50.718;7.072;2023-12-20T08:26:57;11.77;;;4.32;;
14235;SDS011;7202;50.718;7.072;2023-12-20T08:29:25;6.40;;;2.88;;
14235;SDS011;7202;50.718;7.072;2023-12-20T08:31:54;13.73;;;3.92;;
14235;SDS011;7202;50.718;7.072;2023-12-20T08:34:24;10.68;;;3.00;;
14235;SDS011;7202;50.718;7.072;2023-12-20T08:36:57;8.07;;;3.15;;
14235;SDS011;7202;50.718;7.072;2023-12-20T08:39:28;12.25;;;3.28;;
14235;SDS011;7202;50.718;7.072;2023-12-20T08:41:59;10.25;;;3.10;;
14235;SDS011;7202;50.718;7.072;2023-12-20T08:44:37;8.15;;;3.25;;
14235;SDS011;7202;50.718;7.072;2023-12-20T08:47:06;11.82;;;2.90;;
14235;SDS011;7202;50.718;7.072;2023-12-20T08:49:35;13.10;;;3.08;;
14235;SDS011;7202;50.718;7.072;2023-12-20T08:52:07;10.40;;;3.08;;
14235;SDS011;7202;50.718;7.072;2023-12-20T08:54:36;11.75;;;3.05;;
14235;SDS011;7202;50.718;7.072;2023-12-20T08:57:05;13.57;;;3.80;;
14235;SDS011;7202;50.718;7.072;2023-12-20T08:59:35;12.45;;;3.20;;
14235;SDS011;7202;50.718;7.072;2023-12-20T09:02:04;10.40;;;4.57;;
14235;SDS011;7202;50.718;7.072;2023-12-20T09:04:33;9.23;;;3.13;;
14235;SDS011;7202;50.718;7.072;2023-12-20T09:07:02;13.00;;;3.38;;
14235;SDS011;7202;50.718;7.072;2023-12-20T09:09:34;12.70;;;2.95;;
14235;SDS011;7202;50.718;7.072;2023-12-20T09:12:06;10.02;;;2.78;;
14235;SDS011;7202;50.718;7.072;2023-12-20T09:14:35;11.50;;;3.30;;
14235;SDS011;7202;50.718;7.072;2023-12-20T09:17:04;8.68;;;3.20;;
14235;SDS011;7202;50.718;7.072;2023-12-20T09:19:35;8.90;;;3.08;;
14235;SDS011;7202;50.718;7.072;2023-12-20T09:22:07;9.07;;;2.72;;
14235;SDS011;7202;50.718;7.072;2023-12-20T09:24:37;12.63;;;2.95;;
14235;SDS011;7202;50.718;7.072;2023-12-20T09:27:07;15.43;;;3.20;;
14235;SDS011;7202;50.718;7.072;2023-12-20T09:29:36;9.23;;;2.75;;
14235;SDS011;7202;50.718;7.072;2023-12-20T09:32:05;11.27;;;3.03;;
14235;SDS011;7202;50.718;7.072;2023-12-20T09:34:34;7.75;;;2.78;;
14235;SDS011;7202;50.718;7.072;2023-12-20T09:37:05;12.55;;;2.58;;
14235;SDS011;7202;50.718;7.072;2023-12-20T09:39:34;12.43;;;2.95;;
14235;SDS011;7202;50.718;7.072;2023-12-20T09:42:06;13.57;;;2.85;;
14235;SDS011;7202;50.718;7.072;2023-12-20T09:44:35;12.30;;;3.00;;
14235;SDS011;7202;50.718;7.072;2023-12-20T09:47:09;11.85;;;3.15;;
14235;SDS011;7202;50.718;7.072;2023-12-20T09:49:41;8.80;;;2.75;;
14235;SDS011;7202;50.718;7.072;2023-12-20T09:52:12;11.45;;;2.78;;
14235;SDS011;7202;50.718;7.072;2023-12-20T09:54:45;9.68;;;2.60;;
14235;SDS011;7202;50.718;7.072;2023-12-20T09:57:17;7.05;;;2.63;;
14235;SDS011;7202;50.718;7.072;2023-12-20T09:59:48;9.68;;;2.85;;
14235;SDS011;7202;50.718;7.072;2023-12-20T10:02:17;12.77;;;2.75;;
14235;SDS011;7202;50.718;7.072;2023-12-20T10:04:51;6.65;;;2.53;;
14235;SDS011;7202;50.718;7.072;2023-12-20T10:07:20;10.18;;;2.70;;
14235;SDS011;7202;50.718;7.072;2023-12-20T10:09:51;9.75;;;2.53;;
14235;SDS011;7202;50.718;7.072;2023-12-20T10:12:25;9.48;;;2.95;;
14235;SDS011;7202;50.718;7.072;2023-12-20T10:14:53;12.43;;;2.75;;
14235;SDS011;7202;50.718;7.072;2023-12-20T10:17:22;7.25;;;2.63;;
14235;SDS011;7202;50.718;7.072;2023-12-20T10:19:52;14.73;;;2.75;;
14235;SDS011;7202;50.718;7.072;2023-12-20T10:22:21;8.13;;;2.53;;
14235;SDS011;7202;50.718;7.072;2023-12-20T10:24:51;8.63;;;2.80;;
14235;SDS011;7202;50.718;7.072;2023-12-20T10:27:21;9.57;;;3.15;;
14235;SDS011;7202;50.718;7.072;2023-12-20T10:29:52;9.23;;;2.85;;
14235;SDS011;7202;50.718;7.072;2023-12-20T10:32:21;13.18;;;2.72;;
14235;SDS011;7202;50.718;7.072;2023-12-20T10:34:51;12.20;;;2.90;;
14235;SDS011;7202;50.718;7.072;2023-12-20T10:37:22;11.90;;;2.85;;
14235;SDS011;7202;50.718;7.072;2023-12-20T10:39:53;8.15;;;2.78;;
14235;SDS011;7202;50.718;7.072;2023-12-20T10:42:26;13.50;;;2.90;;
14235;SDS011;7202;50.718;7.072;2023-12-20T10:44:56;13.65;;;2.83;;
14235;SDS011;7202;50.718;7.072;2023-12-20T10:47:27;9.10;;;2.72;;
14235;SDS011;7202;50.718;7.072;2023-12-20T10:49:59;9.55;;;2.90;;
14235;SDS011;7202;50.718;7.072;2023-12-20T10:52:29;10.05;;;2.88;;
14235;SDS011;7202;50.718;7.072;2023-12-20T10:55:01;8.15;;;3.13;;
14235;SDS011;7202;50.718;7.072;2023-12-20T10:57:31;11.35;;;3.13;;
14235;SDS011;7202;50.718;7.072;2023-12-20T11:00:01;12.05;;;3.03;;
14235;SDS011;7202;50.718;7.072;2023-12-20T11:02:32;8.13;;;2.92;;
14235;SDS011;7202;50.718;7.072;2023-12-20T11:05:04;7.90;;;2.88;;
14235;SDS011;7202;50.718;7.072;2023-12-20T11:07:41;7.75;;;3.10;;
14235;SDS011;7202;50.718;7.072;2023-12-20T11:10:19;10.18;;;3.22;;
14235;SDS011;7202;50.718;7.072;2023-12-20T11:12:51;8.27;;;2.97;;
14235;SDS011;7202;50.718;7.072;2023-12-20T11:15:22;9.43;;;3.35;;
14235;SDS011;7202;50.718;7.072;2023-12-20T11:17:54;9.13;;;3.22;;
14235;SDS011;7202;50.718;7.072;2023-12-20T11:20:24;12.20;;;3.47;;
14235;SDS011;7202;50.718;7.072;2023-12-20T11:23:04;10.27;;;2.88;;
14235;SDS011;7202;50.718;7.072;2023-12-20T11:25:47;8.63;;;3.55;;
14235;SDS011;7202;50.718;7.072;2023-12-20T11:28:16;8.02;;;3.42;;
14235;SDS011;7202;50.718;7.072;2023-12-20T11:30:50;10.25;;;3.10;;
14235;SDS011;7202;50.718;7.072;2023-12-20T11:33:23;11.05;;;3.22;;
14235;SDS011;7202;50.718;7.072;2023-12-20T11:35:56;8.10;;;2.97;;
14235;SDS011;7202;50.718;7.072;2023-12-20T11:38:27;10.68;;;3.28;;
14235;SDS011;7202;50.718;7.072;2023-12-20T11:40:57;7.18;;;3.00;;
14235;SDS011;7202;50.718;7.072;2023-12-20T11:43:30;7.38;;;2.80;;
14235;SDS011;7202;50.718;7.072;2023-12-20T11:46:04;14.25;;;3.20;;
14235;SDS011;7202;50.718;7.072;2023-12-20T11:48:34;9.00;;;3.17;;
14235;SDS011;7202;50.718;7.072;2023-12-20T11:51:08;8.82;;;2.97;;
14235;SDS011;7202;50.718;7.072;2023-12-20T11:53:38;14.13;;;3.00;;
14235;SDS011;7202;50.718;7.072;2023-12-20T11:56:09;9.18;;;3.35;;
14235;SDS011;7202;50.718;7.072;2023-12-20T11:58:39;13.48;;;2.95;;
14235;SDS011;7202;50.718;7.072;2023-12-20T12:01:08;6.13;;;2.85;;
14235;SDS011;7202;50.718;7.072;2023-12-20T12:03:37;7.72;;;3.17;;
14235;SDS011;7202;50.718;7.072;2023-12-20T12:06:06;7.95;;;2.85;;
14235;SDS011;7202;50.718;7.072;2023-12-20T12:08:36;8.88;;;3.58;;
14235;SDS011;7202;50.718;7.072;2023-12-20T12:11:05;13.13;;;3.45;;
14235;SDS011;7202;50.718;7.072;2023-12-20T12:13:36;6.35;;;3.00;;
14235;SDS011;7202;50.718;7.072;2023-12-20T12:16:06;13.55;;;3.00;;
14235;SDS011;7202;50.718;7.072;2023-12-20T12:18:42;6.35;;;3.22;;
14235;SDS011;7202;50.718;7.072;2023-12-20T12:21:18;8.73;;;2.90;;
14235;SDS011;7202;50.718;7.072;2023-12-20T12:24:06;10.15;;;3.53;;
14235;SDS011;7202;50.718;7.072;2023-12-20T12:26:49;5.80;;;2.53;;
14235;SDS011;7202;50.718;7.072;2023-12-20T12:29:20;12.27;;;2.75;;
14235;SDS011;7202;50.718;7.072;2023-12-20T12:31:49;9.80;;;2.78;;
14235;SDS011;7202;50.718;7.072;2023-12-20T12:34:18;10.43;;;2.88;;
14235;SDS011;7202;50.718;7.072;2023-12-20T12:36:48;9.23;;;2.67;;
14235;SDS011;7202;50.718;7.072;2023-12-20T12:39:17;11.77;;;3.15;;
14235;SDS011;7202;50.718;7.072;2023-12-20T12:41:49;10.82;;;2.58;;
14235;SDS011;7202;50.718;7.072;2023-12-20T12:44:19;15.43;;;3.15;;
14235;SDS011;7202;50.718;7.072;2023-12-20T12:46:52;8.07;;;3.00;;
14235;SDS011;7202;50.718;7.072;2023-12-20T12:49:21;12.20;;;3.30;;
14235;SDS011;7202;50.718;7.072;2023-12-20T12:51:51;6.95;;;2.50;;
14235;SDS011;7202;50.718;7.072;2023-12-20T12:54:21;10.15;;;2.83;;
14235;SDS011;7202;50.718;7.072;2023-12-20T12:56:53;13.98;;;2.97;;
14235;SDS011;7202;50.718;7.072;2023-12-20T12:59:23;13.13;;;3.50;;
14235;SDS011;7202;50.718;7.072;2023-12-20T13:01:52;11.98;;;3.20;;
14235;SDS011;7202;50.718;7.072;2023-12-20T13:04:21;12.52;;;3.42;;
14235;SDS011;7202;50.718;7.072;2023-12-20T13:06:50;11.77;;;3.03;;
14235;SDS011;7202;50.718;7.072;2023-12-20T13:09:21;6.80;;;2.95;;
14235;SDS011;7202;50.718;7.072;2023-12-20T13:11:51;7.72;;;3.03;;
14235;SDS011;7202;50.718;7.072;2023-12-20T13:14:23;11.35;;;3.13;;
14235;SDS011;7202;50.718;7.072;2023-12-20T13:16:54;8.85;;;3.10;;
14235;SDS011;7202;50.718;7.072;2023-12-20T13:19:24;8.30;;;2.92;;
14235;SDS011;7202;50.718;7.072;2023-12-20T13:21:58;7.95;;;3.10;;
14235;SDS011;7202;50.718;7.072;2023-12-20T13:24:33;10.82;;;3.30;;
14235;SDS011;7202;50.718;7.072;2023-12-20T13:27:02;14.88;;;3.70;;
14235;SDS011;7202;50.718;7.072;2023-12-20T13:29:33;6.43;;;2.88;;
14235;SDS011;7202;50.718;7.072;2023-12-20T13:32:06;6.15;;;3.03;;
14235;SDS011;7202;50.718;7.072;2023-12-20T13:34:35;7.70;;;3.17;;
14235;SDS011;7202;50.718;7.072;2023-12-20T13:37:04;7.35;;;3.30;;
14235;SDS011;7202;50.718;7.072;2023-12-20T13:39:33;10.60;;;3.15;;
14235;SDS011;7202;50.718;7.072;2023-12-20T13:42:01;7.53;;;2.75;;
14235;SDS011;7202;50.718;7.072;2023-12-20T13:44:30;12.13;;;3.15;;
14235;SDS011;7202;50.718;7.072;2023-12-20T13:47:00;10.77;;;3.60;;
14235;SDS011;7202;50.718;7.072;2023-12-20T13:49:30;13.32;;;3.33;;
14235;SDS011;7202;50.718;7.072;2023-12-20T13:51:59;8.63;;;3.58;;
14235;SDS011;7202;50.718;7.072;2023-12-20T13:54:28;11.93;;;3.08;;
14235;SDS011;7202;50.718;7.072;2023-12-20T13:56:57;7.70;;;3.67;;
14235;SDS011;7202;50.718;7.072;2023-12-20T13:59:42;11.60;;;3.40;;
14235;SDS011;7202;50.718;7.072;2023-12-20T14:02:13;10.90;;;3.40;;
14235;SDS011;7202;50.718;7.072;2023-12-20T14:04:43;7.20;;;3.15;;
14235;SDS011;7202;50.718;7.072;2023-12-20T14:07:12;11.55;;;3.60;;
14235;SDS011;7202;50.718;7.072;2023-12-20T14:09:41;7.25;;;3.35;;
14235;SDS011;7202;50.718;7.072;2023-12-20T14:12:13;6.70;;;3.08;;
14235;SDS011;7202;50.718;7.072;2023-12-20T14:14:42;8.65;;;2.95;;
14235;SDS011;7202;50.718;7.072;2023-12-20T14:17:13;12.43;;;3.00;;
14235;SDS011;7202;50.718;7.072;2023-12-20T14:19:42;8.57;;;2.65;;
14235;SDS011;7202;50.718;7.072;2023-12-20T14:22:13;6.70;;;2.28;;
14235;SDS011;7202;50.718;7.072;2023-12-20T14:24:44;7.05;;;2.38;;
14235;SDS011;7202;50.718;7.072;2023-12-20T14:27:13;6.28;;;2.33;;
14235;SDS011;7202;50.718;7.072;2023-12-20T14:29:44;5.45;;;1.85;;
14235;SDS011;7202;50.718;7.072;2023-12-20T14:32:15;4.88;;;1.70;;
14235;SDS011;7202;50.718;7.072;2023-12-20T14:34:44;4.55;;;1.50;;
14235;SDS011;7202;50.718;7.072;2023-12-20T14:37:13;3.92;;;1.40;;
14235;SDS011;7202;50.718;7.072;2023-12-20T14:39:44;5.13;;;1.52;;
14235;SDS011;7202;50.718;7.072;2023-12-20T14:42:13;2.65;;;1.33;;
14235;SDS011;7202;50.718;7.072;2023-12-20T14:44:41;3.35;;;1.55;;
14235;SDS011;7202;50.718;7.072;2023-12-20T14:47:10;2.95;;;1.48;;
14235;SDS011;7202;50.718;7.072;2023-12-20T14:49:42;4.28;;;1.55;;
14235;SDS011;7202;50.718;7.072;2023-12-20T14:52:11;4.13;;;1.88;;
14235;SDS011;7202;50.718;7.072;2023-12-20T14:54:40;3.97;;;1.42;;
14235;SDS011;7202;50.718;7.072;2023-12-20T14:57:11;3.60;;;1.73;;
14235;SDS011;7202;50.718;7.072;2023-12-20T14:59:40;6.05;;;3.45;;
14235;SDS011;7202;50.718;7.072;2023-12-20T15:02:10;2.15;;;1.13;;
14235;SDS011;7202;50.718;7.072;2023-12-20T15:04:40;2.70;;;1.30;;
14235;SDS011;7202;50.718;7.072;2023-12-20T15:07:11;4.43;;;1.45;;
14235;SDS011;7202;50.718;7.072;2023-12-20T15:09:40;3.22;;;1.60;;
14235;SDS011;7202;50.718;7.072;2023-12-20T15:12:18;6.20;;;1.30;;